sensor_id;sensor_type;location;lat;lon;timestamp;temperature;humidity
41142;SHT31;63666;52.284;20.890;2024-01-15T00:00:10;19.85;42.30
41142;SHT31;63666;52.284;20.890;2024-01-15T00:02:37;19.77;42.40
41142;SHT31;63666;52.284;20.890;2024-01-15T00:04:22;19.79;42.32
41142;SHT31;63666;52.284;20.890;2024-01-15T00:06:07;19.78;42.36
41142;SHT31;63666;52.284;20.890;2024-01-15T00:07:52;19.77;42.30
41142;SHT31;63666;52.284;20.890;2024-01-15T00:09:37;19.77;42.29
41142;SHT31;63666;52.284;20.890;2024-01-15T00:11:24;19.76;42.31
41142;SHT31;63666;52.284;20.890;2024-01-15T00:13:09;19.72;42.30
41142;SHT31;63666;52.284;20.890;2024-01-15T00:14:56;19.72;42.30
41142;SHT31;63666;52.284;20.890;2024-01-15T00:16:43;19.72;42.29
41142;SHT31;63666;52.284;20.890;2024-01-15T00:18:30;19.73;42.24
41142;SHT31;63666;52.284;20.890;2024-01-15T00:20:17;19.71;42.14
41142;SHT31;63666;52.284;20.890;2024-01-15T00:22:06;19.72;42.09
41142;SHT31;63666;52.284;20.890;2024-01-15T00:23:51;19.73;42.00
41142;SHT31;63666;52.284;20.890;2024-01-15T00:25:38;19.73;42.01
41142;SHT31;63666;52.284;20.890;2024-01-15T00:27:26;19.75;41.93
41142;SHT31;63666;52.284;20.890;2024-01-15T00:29:11;19.71;41.98
41142;SHT31;63666;52.284;20.890;2024-01-15T00:30:58;19.73;41.96
41142;SHT31;63666;52.284;20.890;2024-01-15T00:32:54;19.71;41.94
41142;SHT31;63666;52.284;20.890;2024-01-15T00:34:42;19.68;42.00
41142;SHT31;63666;52.284;20.890;2024-01-15T00:36:33;19.68;42.03
41142;SHT31;63666;52.284;20.890;2024-01-15T00:38:18;19.65;42.25
41142;SHT31;63666;52.284;20.890;2024-01-15T00:40:07;19.66;42.39
41142;SHT31;63666;52.284;20.890;2024-01-15T00:41:52;19.65;42.46
41142;SHT31;63666;52.284;20.890;2024-01-15T00:43:37;19.63;42.50
41142;SHT31;63666;52.284;20.890;2024-01-15T00:45:22;19.65;42.56
41142;SHT31;63666;52.284;20.890;2024-01-15T00:47:11;19.63;42.55
41142;SHT31;63666;52.284;20.890;2024-01-15T00:48:56;19.63;42.57
41142;SHT31;63666;52.284;20.890;2024-01-15T00:50:41;19.61;42.58
41142;SHT31;63666;52.284;20.890;2024-01-15T00:52:29;19.61;42.57
41142;SHT31;63666;52.284;20.890;2024-01-15T00:54:16;19.62;42.47
41142;SHT31;63666;52.284;20.890;2024-01-15T00:56:01;19.57;42.58
41142;SHT31;63666;52.284;20.890;2024-01-15T00:57:48;19.54;42.59
41142;SHT31;63666;52.284;20.890;2024-01-15T00:59:33;19.56;42.57
41142;SHT31;63666;52.284;20.890;2024-01-15T01:01:22;19.56;42.57
41142;SHT31;63666;52.284;20.890;2024-01-15T01:03:08;19.55;42.60
41142;SHT31;63666;52.284;20.890;2024-01-15T01:04:55;19.56;42.54
41142;SHT31;63666;52.284;20.890;2024-01-15T01:06:42;19.54;42.57
41142;SHT31;63666;52.284;20.890;2024-01-15T01:08:26;19.55;42.52
41142;SHT31;63666;52.284;20.890;2024-01-15T01:10:15;19.55;42.49
41142;SHT31;63666;52.284;20.890;2024-01-15T01:12:00;19.53;42.48
41142;SHT31;63666;52.284;20.890;2024-01-15T01:13:47;19.53;42.46
41142;SHT31;63666;52.284;20.890;2024-01-15T01:15:32;19.52;42.52
41142;SHT31;63666;52.284;20.890;2024-01-15T01:17:17;19.52;42.50
41142;SHT31;63666;52.284;20.890;2024-01-15T01:19:02;19.52;42.43
41142;SHT31;63666;52.284;20.890;2024-01-15T01:20:49;19.51;42.46
41142;SHT31;63666;52.284;20.890;2024-01-15T01:22:34;19.48;42.50
41142;SHT31;63666;52.284;20.890;2024-01-15T01:24:19;19.47;42.48
41142;SHT31;63666;52.284;20.890;2024-01-15T01:26:04;19.49;42.40
41142;SHT31;63666;52.284;20.890;2024-01-15T01:27:49;19.46;42.37
41142;SHT31;63666;52.284;20.890;2024-01-15T01:29:36;19.48;42.31
41142;SHT31;63666;52.284;20.890;2024-01-15T01:31:23;19.44;42.40
41142;SHT31;63666;52.284;20.890;2024-01-15T01:33:09;19.42;42.40
41142;SHT31;63666;52.284;20.890;2024-01-15T01:34:54;19.43;42.37
41142;SHT31;63666;52.284;20.890;2024-01-15T01:36:39;19.41;42.38
41142;SHT31;63666;52.284;20.890;2024-01-15T01:38:24;19.39;42.39
41142;SHT31;63666;52.284;20.890;2024-01-15T01:40:10;19.37;42.40
41142;SHT31;63666;52.284;20.890;2024-01-15T01:41:55;19.37;42.36
41142;SHT31;63666;52.284;20.890;2024-01-15T01:43:41;19.38;42.30
41142;SHT31;63666;52.284;20.890;2024-01-15T01:45:27;19.34;42.37
41142;SHT31;63666;52.284;20.890;2024-01-15T01:47:16;19.35;42.33
41142;SHT31;63666;52.284;20.890;2024-01-15T01:49:09;19.37;42.30
41142;SHT31;63666;52.284;20.890;2024-01-15T01:50:54;19.36;42.28
41142;SHT31;63666;52.284;20.890;2024-01-15T01:52:42;19.35;42.31
41142;SHT31;63666;52.284;20.890;2024-01-15T01:54:32;19.38;42.30
41142;SHT31;63666;52.284;20.890;2024-01-15T01:56:19;19.36;42.27
41142;SHT31;63666;52.284;20.890;2024-01-15T01:58:05;19.35;42.25
41142;SHT31;63666;52.284;20.890;2024-01-15T01:59:51;19.33;42.31
41142;SHT31;63666;52.284;20.890;2024-01-15T02:01:36;19.34;42.17
41142;SHT31;63666;52.284;20.890;2024-01-15T02:03:21;19.32;42.29
41142;SHT31;63666;52.284;20.890;2024-01-15T02:05:07;19.30;42.27
41142;SHT31;63666;52.284;20.890;2024-01-15T02:06:55;19.30;42.26
41142;SHT31;63666;52.284;20.890;2024-01-15T02:08:41;19.34;42.20
41142;SHT31;63666;52.284;20.890;2024-01-15T02:10:28;19.33;42.17
41142;SHT31;63666;52.284;20.890;2024-01-15T02:12:12;19.34;42.10
41142;SHT31;63666;52.284;20.890;2024-01-15T02:13:59;19.34;42.13
41142;SHT31;63666;52.284;20.890;2024-01-15T02:15:46;19.32;42.17
41142;SHT31;63666;52.284;20.890;2024-01-15T02:17:31;19.31;42.20
41142;SHT31;63666;52.284;20.890;2024-01-15T02:19:17;19.32;42.16
41142;SHT31;63666;52.284;20.890;2024-01-15T02:21:03;19.30;42.18
41142;SHT31;63666;52.284;20.890;2024-01-15T02:22:49;19.32;42.16
41142;SHT31;63666;52.284;20.890;2024-01-15T02:24:36;19.30;42.17
41142;SHT31;63666;52.284;20.890;2024-01-15T02:26:22;19.29;42.15
41142;SHT31;63666;52.284;20.890;2024-01-15T02:28:11;19.30;42.19
41142;SHT31;63666;52.284;20.890;2024-01-15T02:29:58;19.28;42.17
41142;SHT31;63666;52.284;20.890;2024-01-15T02:31:45;19.29;42.17
41142;SHT31;63666;52.284;20.890;2024-01-15T02:33:30;19.30;42.12
41142;SHT31;63666;52.284;20.890;2024-01-15T02:35:16;19.31;42.11
41142;SHT31;63666;52.284;20.890;2024-01-15T02:37:03;19.29;42.13
41142;SHT31;63666;52.284;20.890;2024-01-15T02:38:50;19.26;42.16
41142;SHT31;63666;52.284;20.890;2024-01-15T02:40:36;19.27;42.20
41142;SHT31;63666;52.284;20.890;2024-01-15T02:42:21;19.28;42.13
41142;SHT31;63666;52.284;20.890;2024-01-15T02:44:07;19.25;42.15
41142;SHT31;63666;52.284;20.890;2024-01-15T02:45:51;19.26;42.13
41142;SHT31;63666;52.284;20.890;2024-01-15T02:47:37;19.24;42.15
41142;SHT31;63666;52.284;20.890;2024-01-15T02:49:24;19.22;42.17
41142;SHT31;63666;52.284;20.890;2024-01-15T02:51:14;19.24;42.14
41142;SHT31;63666;52.284;20.890;2024-01-15T02:52:59;19.25;42.13
41142;SHT31;63666;52.284;20.890;2024-01-15T02:54:44;19.23;42.16
41142;SHT31;63666;52.284;20.890;2024-01-15T02:56:33;19.22;42.14
41142;SHT31;63666;52.284;20.890;2024-01-15T02:58:20;19.22;42.16
41142;SHT31;63666;52.284;20.890;2024-01-15T03:00:08;19.21;42.16
41142;SHT31;63666;52.284;20.890;2024-01-15T03:01:55;19.20;42.17
41142;SHT31;63666;52.284;20.890;2024-01-15T03:03:40;19.19;42.17
41142;SHT31;63666;52.284;20.890;2024-01-15T03:05:26;19.17;42.20
41142;SHT31;63666;52.284;20.890;2024-01-15T03:07:13;19.20;42.10
41142;SHT31;63666;52.284;20.890;2024-01-15T03:08:58;19.21;42.10
41142;SHT31;63666;52.284;20.890;2024-01-15T03:10:44;19.18;42.10
41142;SHT31;63666;52.284;20.890;2024-01-15T03:12:30;19.19;42.08
41142;SHT31;63666;52.284;20.890;2024-01-15T03:14:16;19.17;42.14
41142;SHT31;63666;52.284;20.890;2024-01-15T03:16:01;19.17;42.10
41142;SHT31;63666;52.284;20.890;2024-01-15T03:17:47;19.18;42.04
41142;SHT31;63666;52.284;20.890;2024-01-15T03:19:34;19.18;42.03
41142;SHT31;63666;52.284;20.890;2024-01-15T03:21:19;19.18;42.07
41142;SHT31;63666;52.284;20.890;2024-01-15T03:23:04;19.17;42.02
41142;SHT31;63666;52.284;20.890;2024-01-15T03:24:49;19.16;42.03
41142;SHT31;63666;52.284;20.890;2024-01-15T03:26:36;19.17;42.00
41142;SHT31;63666;52.284;20.890;2024-01-15T03:28:23;19.15;42.00
41142;SHT31;63666;52.284;20.890;2024-01-15T03:30:08;19.16;42.02
41142;SHT31;63666;52.284;20.890;2024-01-15T03:31:55;19.15;41.97
41142;SHT31;63666;52.284;20.890;2024-01-15T03:33:40;19.15;41.97
41142;SHT31;63666;52.284;20.890;2024-01-15T03:35:28;19.16;41.96
41142;SHT31;63666;52.284;20.890;2024-01-15T03:37:13;19.16;41.95
41142;SHT31;63666;52.284;20.890;2024-01-15T03:38:58;19.15;41.93
41142;SHT31;63666;52.284;20.890;2024-01-15T03:40:45;19.14;41.97
41142;SHT31;63666;52.284;20.890;2024-01-15T03:42:30;19.14;41.93
41142;SHT31;63666;52.284;20.890;2024-01-15T03:44:16;19.12;41.96
41142;SHT31;63666;52.284;20.890;2024-01-15T03:46:02;19.09;41.95
41142;SHT31;63666;52.284;20.890;2024-01-15T03:47:52;19.08;41.97
41142;SHT31;63666;52.284;20.890;2024-01-15T03:49:37;19.09;41.98
41142;SHT31;63666;52.284;20.890;2024-01-15T03:51:23;19.09;42.44
41142;SHT31;63666;52.284;20.890;2024-01-15T03:53:10;19.07;42.79
41142;SHT31;63666;52.284;20.890;2024-01-15T03:54:54;19.10;42.82
41142;SHT31;63666;52.284;20.890;2024-01-15T03:56:41;19.13;42.96
41142;SHT31;63666;52.284;20.890;2024-01-15T03:58:26;19.14;42.98
41142;SHT31;63666;52.284;20.890;2024-01-15T04:00:12;19.12;42.84
41142;SHT31;63666;52.284;20.890;2024-01-15T04:01:58;19.09;42.74
41142;SHT31;63666;52.284;20.890;2024-01-15T04:03:44;19.09;42.73
41142;SHT31;63666;52.284;20.890;2024-01-15T04:05:29;19.10;42.64
41142;SHT31;63666;52.284;20.890;2024-01-15T04:07:14;19.11;42.60
41142;SHT31;63666;52.284;20.890;2024-01-15T04:08:58;19.10;42.54
41142;SHT31;63666;52.284;20.890;2024-01-15T04:10:44;19.11;42.55
41142;SHT31;63666;52.284;20.890;2024-01-15T04:12:31;19.09;42.41
41142;SHT31;63666;52.284;20.890;2024-01-15T04:14:17;19.09;42.35
41142;SHT31;63666;52.284;20.890;2024-01-15T04:16:05;19.08;42.34
41142;SHT31;63666;52.284;20.890;2024-01-15T04:17:50;19.09;42.30
41142;SHT31;63666;52.284;20.890;2024-01-15T04:19:35;19.09;42.46
41142;SHT31;63666;52.284;20.890;2024-01-15T04:21:19;19.07;42.93
41142;SHT31;63666;52.284;20.890;2024-01-15T04:23:04;19.07;42.99
41142;SHT31;63666;52.284;20.890;2024-01-15T04:24:50;19.07;43.08
41142;SHT31;63666;52.284;20.890;2024-01-15T04:26:38;19.11;42.96
41142;SHT31;63666;52.284;20.890;2024-01-15T04:28:23;19.08;43.13
41142;SHT31;63666;52.284;20.890;2024-01-15T04:30:09;19.05;43.21
41142;SHT31;63666;52.284;20.890;2024-01-15T04:31:55;19.07;43.26
41142;SHT31;63666;52.284;20.890;2024-01-15T04:33:40;19.06;43.22
41142;SHT31;63666;52.284;20.890;2024-01-15T04:35:27;19.06;43.24
41142;SHT31;63666;52.284;20.890;2024-01-15T04:37:11;19.04;43.25
41142;SHT31;63666;52.284;20.890;2024-01-15T04:38:57;19.06;43.21
41142;SHT31;63666;52.284;20.890;2024-01-15T04:40:44;19.04;43.20
41142;SHT31;63666;52.284;20.890;2024-01-15T04:42:30;19.05;43.17
41142;SHT31;63666;52.284;20.890;2024-01-15T04:44:15;19.05;43.16
41142;SHT31;63666;52.284;20.890;2024-01-15T04:45:59;19.04;43.17
41142;SHT31;63666;52.284;20.890;2024-01-15T04:47:45;19.06;43.09
41142;SHT31;63666;52.284;20.890;2024-01-15T04:49:32;19.08;43.06
41142;SHT31;63666;52.284;20.890;2024-01-15T04:51:17;19.07;43.07
41142;SHT31;63666;52.284;20.890;2024-01-15T04:53:02;19.09;42.97
41142;SHT31;63666;52.284;20.890;2024-01-15T04:54:51;19.11;42.90
41142;SHT31;63666;52.284;20.890;2024-01-15T04:56:36;19.09;42.85
41142;SHT31;63666;52.284;20.890;2024-01-15T04:58:22;19.10;42.84
41142;SHT31;63666;52.284;20.890;2024-01-15T05:00:08;19.13;42.80
41142;SHT31;63666;52.284;20.890;2024-01-15T05:01:56;19.16;42.70
41142;SHT31;63666;52.284;20.890;2024-01-15T05:03:42;19.21;42.61
41142;SHT31;63666;52.284;20.890;2024-01-15T05:05:27;19.22;42.58
41142;SHT31;63666;52.284;20.890;2024-01-15T05:07:15;19.30;42.37
41142;SHT31;63666;52.284;20.890;2024-01-15T05:09:00;19.33;42.25
41142;SHT31;63666;52.284;20.890;2024-01-15T05:10:47;19.37;42.14
41142;SHT31;63666;52.284;20.890;2024-01-15T05:12:32;19.42;42.08
41142;SHT31;63666;52.284;20.890;2024-01-15T05:14:18;19.42;42.06
41142;SHT31;63666;52.284;20.890;2024-01-15T05:16:03;19.48;42.00
41142;SHT31;63666;52.284;20.890;2024-01-15T05:17:49;19.51;41.91
41142;SHT31;63666;52.284;20.890;2024-01-15T05:19:34;19.53;41.80
41142;SHT31;63666;52.284;20.890;2024-01-15T05:21:19;19.55;41.79
41142;SHT31;63666;52.284;20.890;2024-01-15T05:23:06;19.59;41.70
41142;SHT31;63666;52.284;20.890;2024-01-15T05:24:52;19.63;41.60
41142;SHT31;63666;52.284;20.890;2024-01-15T05:26:37;19.65;41.53
41142;SHT31;63666;52.284;20.890;2024-01-15T05:28:27;19.69;41.50
41142;SHT31;63666;52.284;20.890;2024-01-15T05:30:13;19.73;41.40
41142;SHT31;63666;52.284;20.890;2024-01-15T05:31:58;19.74;41.36
41142;SHT31;63666;52.284;20.890;2024-01-15T05:33:46;19.77;41.30
41142;SHT31;63666;52.284;20.890;2024-01-15T05:35:33;19.76;41.31
41142;SHT31;63666;52.284;20.890;2024-01-15T05:37:18;19.77;41.30
41142;SHT31;63666;52.284;20.890;2024-01-15T05:39:02;19.79;41.26
41142;SHT31;63666;52.284;20.890;2024-01-15T05:40:52;19.83;41.20
41142;SHT31;63666;52.284;20.890;2024-01-15T05:42:36;19.84;41.13
41142;SHT31;63666;52.284;20.890;2024-01-15T05:44:22;19.89;41.04
41142;SHT31;63666;52.284;20.890;2024-01-15T05:46:06;19.90;41.00
41142;SHT31;63666;52.284;20.890;2024-01-15T05:47:51;19.91;40.96
41142;SHT31;63666;52.284;20.890;2024-01-15T05:49:36;19.93;40.85
41142;SHT31;63666;52.284;20.890;2024-01-15T05:51:23;19.93;40.81
41142;SHT31;63666;52.284;20.890;2024-01-15T05:53:08;19.95;40.80
41142;SHT31;63666;52.284;20.890;2024-01-15T05:54:56;19.97;40.70
41142;SHT31;63666;52.284;20.890;2024-01-15T05:56:43;20.01;40.64
41142;SHT31;63666;52.284;20.890;2024-01-15T05:58:28;20.04;40.58
41142;SHT31;63666;52.284;20.890;2024-01-15T06:00:16;20.05;40.56
41142;SHT31;63666;52.284;20.890;2024-01-15T06:02:01;20.03;40.63
41142;SHT31;63666;52.284;20.890;2024-01-15T06:03:49;20.03;40.61
41142;SHT31;63666;52.284;20.890;2024-01-15T06:05:34;20.06;40.52
41142;SHT31;63666;52.284;20.890;2024-01-15T06:07:20;20.10;40.43
41142;SHT31;63666;52.284;20.890;2024-01-15T06:09:08;20.13;40.40
41142;SHT31;63666;52.284;20.890;2024-01-15T06:10:52;20.12;40.35
41142;SHT31;63666;52.284;20.890;2024-01-15T06:12:42;20.15;40.30
41142;SHT31;63666;52.284;20.890;2024-01-15T06:14:27;20.16;40.30
41142;SHT31;63666;52.284;20.890;2024-01-15T06:16:15;20.16;40.29
41142;SHT31;63666;52.284;20.890;2024-01-15T06:18:07;20.14;40.33
41142;SHT31;63666;52.284;20.890;2024-01-15T06:19:53;20.19;40.23
41142;SHT31;63666;52.284;20.890;2024-01-15T06:21:38;20.21;40.18
41142;SHT31;63666;52.284;20.890;2024-01-15T06:23:23;20.21;40.19
41142;SHT31;63666;52.284;20.890;2024-01-15T06:25:12;20.22;40.16
41142;SHT31;63666;52.284;20.890;2024-01-15T06:26:57;20.23;40.10
41142;SHT31;63666;52.284;20.890;2024-01-15T06:28:45;20.22;40.07
41142;SHT31;63666;52.284;20.890;2024-01-15T06:30:33;20.27;39.99
41142;SHT31;63666;52.284;20.890;2024-01-15T06:32:20;20.27;39.94
41142;SHT31;63666;52.284;20.890;2024-01-15T06:34:05;20.24;39.93
41142;SHT31;63666;52.284;20.890;2024-01-15T06:35:52;20.25;39.93
41142;SHT31;63666;52.284;20.890;2024-01-15T06:37:41;20.27;39.87
41142;SHT31;63666;52.284;20.890;2024-01-15T06:39:27;20.28;39.89
41142;SHT31;63666;52.284;20.890;2024-01-15T06:41:12;20.31;39.82
41142;SHT31;63666;52.284;20.890;2024-01-15T06:42:58;20.34;39.71
41142;SHT31;63666;52.284;20.890;2024-01-15T06:44:43;20.38;39.68
41142;SHT31;63666;52.284;20.890;2024-01-15T06:46:30;20.39;39.67
41142;SHT31;63666;52.284;20.890;2024-01-15T06:48:16;20.40;39.68
41142;SHT31;63666;52.284;20.890;2024-01-15T06:50:00;20.40;39.66
41142;SHT31;63666;52.284;20.890;2024-01-15T06:51:47;20.41;39.63
41142;SHT31;63666;52.284;20.890;2024-01-15T06:53:35;20.44;39.59
41142;SHT31;63666;52.284;20.890;2024-01-15T06:55:23;20.42;39.61
41142;SHT31;63666;52.284;20.890;2024-01-15T06:57:10;20.39;39.63
41142;SHT31;63666;52.284;20.890;2024-01-15T06:58:55;20.40;39.57
41142;SHT31;63666;52.284;20.890;2024-01-15T07:00:39;20.40;39.53
41142;SHT31;63666;52.284;20.890;2024-01-15T07:02:30;20.40;39.54
41142;SHT31;63666;52.284;20.890;2024-01-15T07:04:15;20.44;39.42
41142;SHT31;63666;52.284;20.890;2024-01-15T07:06:00;20.47;39.40
41142;SHT31;63666;52.284;20.890;2024-01-15T07:07:47;20.47;39.46
41142;SHT31;63666;52.284;20.890;2024-01-15T07:09:32;20.46;39.50
41142;SHT31;63666;52.284;20.890;2024-01-15T07:11:17;20.47;39.49
41142;SHT31;63666;52.284;20.890;2024-01-15T07:13:05;20.47;39.46
41142;SHT31;63666;52.284;20.890;2024-01-15T07:14:50;20.48;39.41
41142;SHT31;63666;52.284;20.890;2024-01-15T07:16:36;20.48;39.32
41142;SHT31;63666;52.284;20.890;2024-01-15T07:18:27;20.47;39.29
41142;SHT31;63666;52.284;20.890;2024-01-15T07:20:12;20.50;39.23
41142;SHT31;63666;52.284;20.890;2024-01-15T07:22:00;20.50;39.23
41142;SHT31;63666;52.284;20.890;2024-01-15T07:23:47;20.50;39.24
41142;SHT31;63666;52.284;20.890;2024-01-15T07:25:35;20.50;39.26
41142;SHT31;63666;52.284;20.890;2024-01-15T07:27:19;20.51;39.27
41142;SHT31;63666;52.284;20.890;2024-01-15T07:29:04;20.52;39.30
41142;SHT31;63666;52.284;20.890;2024-01-15T07:30:49;20.49;39.42
41142;SHT31;63666;52.284;20.890;2024-01-15T07:32:35;20.51;39.41
41142;SHT31;63666;52.284;20.890;2024-01-15T07:34:21;20.54;39.43
41142;SHT31;63666;52.284;20.890;2024-01-15T07:36:10;20.57;39.43
41142;SHT31;63666;52.284;20.890;2024-01-15T07:37:55;20.58;39.50
41142;SHT31;63666;52.284;20.890;2024-01-15T07:39:42;20.58;39.54
41142;SHT31;63666;52.284;20.890;2024-01-15T07:41:27;20.56;39.60
41142;SHT31;63666;52.284;20.890;2024-01-15T07:43:12;20.59;39.69
41142;SHT31;63666;52.284;20.890;2024-01-15T07:44:57;20.62;39.67
41142;SHT31;63666;52.284;20.890;2024-01-15T07:46:45;20.62;39.70
41142;SHT31;63666;52.284;20.890;2024-01-15T07:48:32;20.60;39.81
41142;SHT31;63666;52.284;20.890;2024-01-15T07:50:19;20.59;39.91
41142;SHT31;63666;52.284;20.890;2024-01-15T07:52:06;20.62;39.91
41142;SHT31;63666;52.284;20.890;2024-01-15T07:53:54;20.62;39.87
41142;SHT31;63666;52.284;20.890;2024-01-15T07:55:43;20.62;39.96
41142;SHT31;63666;52.284;20.890;2024-01-15T07:57:29;20.63;39.93
41142;SHT31;63666;52.284;20.890;2024-01-15T07:59:16;20.62;39.93
41142;SHT31;63666;52.284;20.890;2024-01-15T08:01:03;20.63;39.96
41142;SHT31;63666;52.284;20.890;2024-01-15T08:02:50;20.60;39.94
41142;SHT31;63666;52.284;20.890;2024-01-15T08:04:35;20.61;40.03
41142;SHT31;63666;52.284;20.890;2024-01-15T08:06:21;20.63;40.16
41142;SHT31;63666;52.284;20.890;2024-01-15T08:08:07;20.60;40.25
41142;SHT31;63666;52.284;20.890;2024-01-15T08:09:52;20.60;40.21
41142;SHT31;63666;52.284;20.890;2024-01-15T08:11:41;20.60;40.16
41142;SHT31;63666;52.284;20.890;2024-01-15T08:13:27;20.63;40.01
41142;SHT31;63666;52.284;20.890;2024-01-15T08:15:14;20.64;39.99
41142;SHT31;63666;52.284;20.890;2024-01-15T08:16:59;20.63;39.98
41142;SHT31;63666;52.284;20.890;2024-01-15T08:18:43;20.67;39.94
41142;SHT31;63666;52.284;20.890;2024-01-15T08:20:29;20.71;40.12
41142;SHT31;63666;52.284;20.890;2024-01-15T08:22:13;20.70;40.26
41142;SHT31;63666;52.284;20.890;2024-01-15T08:24:01;20.74;40.34
41142;SHT31;63666;52.284;20.890;2024-01-15T08:25:47;20.75;40.57
41142;SHT31;63666;52.284;20.890;2024-01-15T08:27:32;20.75;40.57
41142;SHT31;63666;52.284;20.890;2024-01-15T08:29:20;20.73;40.53
41142;SHT31;63666;52.284;20.890;2024-01-15T08:31:06;20.75;40.28
41142;SHT31;63666;52.284;20.890;2024-01-15T08:32:51;20.73;40.10
41142;SHT31;63666;52.284;20.890;2024-01-15T08:34:49;20.74;40.00
41142;SHT31;63666;52.284;20.890;2024-01-15T08:36:36;20.78;39.73
41142;SHT31;63666;52.284;20.890;2024-01-15T08:38:21;20.79;39.54
41142;SHT31;63666;52.284;20.890;2024-01-15T08:40:07;20.80;39.42
41142;SHT31;63666;52.284;20.890;2024-01-15T08:41:54;20.83;40.56
41142;SHT31;63666;52.284;20.890;2024-01-15T08:43:39;20.91;42.73
41142;SHT31;63666;52.284;20.890;2024-01-15T08:45:23;20.99;42.67
41142;SHT31;63666;52.284;20.890;2024-01-15T08:47:12;21.00;42.76
41142;SHT31;63666;52.284;20.890;2024-01-15T08:48:58;20.97;42.78
41142;SHT31;63666;52.284;20.890;2024-01-15T08:50:43;20.99;42.26
41142;SHT31;63666;52.284;20.890;2024-01-15T08:52:30;21.02;41.99
41142;SHT31;63666;52.284;20.890;2024-01-15T08:54:15;21.05;42.45
41142;SHT31;63666;52.284;20.890;2024-01-15T08:55:59;21.06;41.09
41142;SHT31;63666;52.284;20.890;2024-01-15T08:57:44;21.14;41.87
41142;SHT31;63666;52.284;20.890;2024-01-15T08:59:29;21.19;42.14
41142;SHT31;63666;52.284;20.890;2024-01-15T09:01:13;21.20;42.17
41142;SHT31;63666;52.284;20.890;2024-01-15T09:02:57;21.24;41.69
41142;SHT31;63666;52.284;20.890;2024-01-15T09:04:42;21.26;39.98
41142;SHT31;63666;52.284;20.890;2024-01-15T09:06:27;21.30;40.26
41142;SHT31;63666;52.284;20.890;2024-01-15T09:08:11;21.36;39.47
41142;SHT31;63666;52.284;20.890;2024-01-15T09:09:55;21.36;39.21
41142;SHT31;63666;52.284;20.890;2024-01-15T09:11:40;21.37;39.58
41142;SHT31;63666;52.284;20.890;2024-01-15T09:13:26;21.36;39.31
41142;SHT31;63666;52.284;20.890;2024-01-15T09:15:11;21.36;38.78
41142;SHT31;63666;52.284;20.890;2024-01-15T09:16:55;21.40;39.20
41142;SHT31;63666;52.284;20.890;2024-01-15T09:18:39;21.39;38.53
41142;SHT31;63666;52.284;20.890;2024-01-15T09:20:25;21.38;38.43
41142;SHT31;63666;52.284;20.890;2024-01-15T09:22:10;21.40;38.23
41142;SHT31;63666;52.284;20.890;2024-01-15T09:24:05;21.46;38.77
41142;SHT31;63666;52.284;20.890;2024-01-15T09:25:50;21.51;39.22
41142;SHT31;63666;52.284;20.890;2024-01-15T09:27:34;21.59;39.11
41142;SHT31;63666;52.284;20.890;2024-01-15T09:29:18;21.61;39.52
41142;SHT31;63666;52.284;20.890;2024-01-15T09:31:04;21.61;39.57
41142;SHT31;63666;52.284;20.890;2024-01-15T09:32:48;21.59;38.07
41142;SHT31;63666;52.284;20.890;2024-01-15T09:34:33;21.58;38.59
41142;SHT31;63666;52.284;20.890;2024-01-15T09:36:18;21.58;38.15
41142;SHT31;63666;52.284;20.890;2024-01-15T09:38:03;21.63;38.14
41142;SHT31;63666;52.284;20.890;2024-01-15T09:39:48;21.60;37.63
41142;SHT31;63666;52.284;20.890;2024-01-15T09:41:33;21.59;37.89
41142;SHT31;63666;52.284;20.890;2024-01-15T09:43:19;21.58;37.89
41142;SHT31;63666;52.284;20.890;2024-01-15T09:45:05;21.61;37.65
41142;SHT31;63666;52.284;20.890;2024-01-15T09:46:51;21.60;37.41
41142;SHT31;63666;52.284;20.890;2024-01-15T09:48:38;20.89;36.87
41142;SHT31;63666;52.284;20.890;2024-01-15T09:50:23;20.40;37.38
41142;SHT31;63666;52.284;20.890;2024-01-15T09:52:10;20.17;37.50
41142;SHT31;63666;52.284;20.890;2024-01-15T09:53:57;20.15;37.53
41142;SHT31;63666;52.284;20.890;2024-01-15T09:55:43;19.85;37.87
41142;SHT31;63666;52.284;20.890;2024-01-15T09:57:28;19.95;37.94
41142;SHT31;63666;52.284;20.890;2024-01-15T09:59:15;19.62;37.86
41142;SHT31;63666;52.284;20.890;2024-01-15T10:01:01;19.61;38.31
41142;SHT31;63666;52.284;20.890;2024-01-15T10:02:49;19.65;38.07
41142;SHT31;63666;52.284;20.890;2024-01-15T10:04:34;19.71;37.98
41142;SHT31;63666;52.284;20.890;2024-01-15T10:06:19;19.69;37.61
41142;SHT31;63666;52.284;20.890;2024-01-15T10:08:08;19.98;37.29
41142;SHT31;63666;52.284;20.890;2024-01-15T10:09:54;20.04;37.10
41142;SHT31;63666;52.284;20.890;2024-01-15T10:11:39;19.80;37.09
41142;SHT31;63666;52.284;20.890;2024-01-15T10:13:26;19.27;38.57
41142;SHT31;63666;52.284;20.890;2024-01-15T10:15:11;19.37;38.58
41142;SHT31;63666;52.284;20.890;2024-01-15T10:16:58;19.56;37.70
41142;SHT31;63666;52.284;20.890;2024-01-15T10:18:45;19.73;38.31
41142;SHT31;63666;52.284;20.890;2024-01-15T10:20:30;19.79;37.83
41142;SHT31;63666;52.284;20.890;2024-01-15T10:22:17;19.49;38.34
41142;SHT31;63666;52.284;20.890;2024-01-15T10:24:04;19.46;38.30
41142;SHT31;63666;52.284;20.890;2024-01-15T10:25:49;19.42;39.58
41142;SHT31;63666;52.284;20.890;2024-01-15T10:27:33;20.27;39.76
41142;SHT31;63666;52.284;20.890;2024-01-15T10:29:19;20.70;39.10
41142;SHT31;63666;52.284;20.890;2024-01-15T10:31:06;20.93;38.63
41142;SHT31;63666;52.284;20.890;2024-01-15T10:32:59;21.00;37.39
41142;SHT31;63666;52.284;20.890;2024-01-15T10:34:46;20.94;37.43
41142;SHT31;63666;52.284;20.890;2024-01-15T10:36:31;20.90;37.20
41142;SHT31;63666;52.284;20.890;2024-01-15T10:38:34;21.04;38.10
41142;SHT31;63666;52.284;20.890;2024-01-15T10:40:23;21.11;37.93
41142;SHT31;63666;52.284;20.890;2024-01-15T10:42:09;21.16;37.22
41142;SHT31;63666;52.284;20.890;2024-01-15T10:43:55;21.15;36.90
41142;SHT31;63666;52.284;20.890;2024-01-15T10:45:54;21.11;36.14
41142;SHT31;63666;52.284;20.890;2024-01-15T10:47:47;21.15;36.56
41142;SHT31;63666;52.284;20.890;2024-01-15T10:49:36;21.31;39.83
41142;SHT31;63666;52.284;20.890;2024-01-15T10:51:33;21.31;37.66
41142;SHT31;63666;52.284;20.890;2024-01-15T10:53:31;21.28;35.90
41142;SHT31;63666;52.284;20.890;2024-01-15T10:55:31;21.26;35.90
41142;SHT31;63666;52.284;20.890;2024-01-15T10:57:20;21.29;35.74
41142;SHT31;63666;52.284;20.890;2024-01-15T10:59:09;21.25;35.80
41142;SHT31;63666;52.284;20.890;2024-01-15T11:00:57;21.22;36.16